Time;durP1;ratioP1;P1;durP2;ratioP2;P2;SDS_P1;SDS_P2;PMS_P1;PMS_P2;Temp;Humidity;BMP_temperature;BMP_pressure;BME280_temperature;BME280_humidity;BME280_pressure;Samples;Min_cycle;Max_cycle;Signal;HPM_P1;HPM_P2
2022/05/04 00:00:17;;;;;;;11.53;10.50;;;14.20;99.90;;;;;;5065381;28;20390;-81
2022/05/04 00:03:01;;;;;;;12.23;9.53;;;14.30;99.90;;;;;;5066075;28;20470;-81
2022/05/04 00:05:45;;;;;;;11.73;9.67;;;14.40;99.90;;;;;;5065037;28;20449;-81
2022/05/04 00:08:30;;;;;;;10.70;9.60;;;14.30;99.90;;;;;;5065644;28;20431;-81
2022/05/04 00:11:14;;;;;;;12.30;9.50;;;14.30;99.90;;;;;;5064774;28;20406;-82
2022/05/04 00:13:59;;;;;;;10.73;9.33;;;14.20;99.90;;;;;;5065228;28;20469;-82
2022/05/04 00:16:44;;;;;;;9.80;9.00;;;14.10;99.90;;;;;;5050278;28;20909;-82
2022/05/04 00:19:28;;;;;;;12.53;9.93;;;14.10;99.90;;;;;;5034266;28;20794;-82
2022/05/04 00:22:20;;;;;;;13.67;9.73;;;14.00;99.90;;;;;;5064837;28;20401;-82
2022/05/04 00:25:05;;;;;;;20.80;10.83;;;14.00;99.90;;;;;;5064524;28;20398;-82
2022/05/04 00:27:50;;;;;;;11.83;10.73;;;13.80;99.90;;;;;;5065036;28;20390;-82
2022/05/04 00:30:35;;;;;;;11.07;10.13;;;14.00;99.90;;;;;;5065094;28;20488;-82
2022/05/04 00:33:19;;;;;;;10.20;8.87;;;14.10;99.90;;;;;;5065293;28;20386;-82
2022/05/04 00:36:04;;;;;;;10.03;9.07;;;14.20;99.90;;;;;;5050366;28;20515;-82
2022/05/04 00:38:48;;;;;;;10.13;9.20;;;14.20;99.90;;;;;;5072005;28;20436;-79
2022/05/04 00:41:33;;;;;;;10.57;9.20;;;14.30;99.90;;;;;;5071092;28;20521;-79
2022/05/04 00:44:17;;;;;;;14.93;11.00;;;14.30;99.90;;;;;;5055646;28;20482;-78
2022/05/04 00:47:03;;;;;;;12.13;9.70;;;14.30;99.90;;;;;;5070127;28;20382;-80
2022/05/04 00:49:49;;;;;;;11.83;10.60;;;14.30;99.90;;;;;;5054996;28;20432;-80
2022/05/04 00:52:34;;;;;;;11.60;10.43;;;14.30;99.90;;;;;;5062898;28;20381;-82
2022/05/04 00:55:19;;;;;;;13.13;11.73;;;14.40;99.90;;;;;;5062712;28;20515;-82
2022/05/04 01:01:03;;;;;;;11.50;10.30;;;14.40;99.90;;;;;;5050082;28;20466;-81
2022/05/04 01:03:47;;;;;;;11.63;10.23;;;14.40;99.90;;;;;;5064253;28;20460;-82
2022/05/04 01:06:33;;;;;;;10.20;9.20;;;14.40;99.90;;;;;;5054532;28;20796;-79
2022/05/04 01:09:18;;;;;;;15.53;10.63;;;14.40;99.90;;;;;;5070296;28;20889;-81
2022/05/04 01:12:02;;;;;;;12.83;9.47;;;14.40;99.90;;;;;;5069336;28;20727;-81
2022/05/04 01:14:47;;;;;;;17.30;11.30;;;14.40;99.90;;;;;;5052032;28;20506;-82
2022/05/04 01:17:32;;;;;;;12.23;10.80;;;14.40;99.90;;;;;;5052254;28;20386;-81
2022/05/04 01:20:17;;;;;;;12.97;10.10;;;14.30;99.90;;;;;;5069282;28;20386;-82
2022/05/04 01:23:02;;;;;;;11.70;10.50;;;14.20;99.90;;;;;;5068105;28;20385;-82
2022/05/04 01:25:47;;;;;;;14.60;13.03;;;14.10;99.90;;;;;;5067966;28;20474;-82
2022/05/04 01:28:31;;;;;;;12.00;10.80;;;14.10;99.90;;;;;;5068852;28;20389;-83
2022/05/04 01:31:16;;;;;;;14.07;11.40;;;14.10;99.90;;;;;;5053790;28;20470;-82
2022/05/04 01:34:01;;;;;;;12.53;11.30;;;14.10;99.90;;;;;;5053243;28;20463;-82
2022/05/04 01:36:45;;;;;;;20.03;11.07;;;14.10;99.90;;;;;;5068127;28;20388;-82
2022/05/04 01:39:30;;;;;;;13.03;9.30;;;14.10;99.90;;;;;;5067693;28;20413;-82
2022/05/04 01:42:16;;;;;;;15.80;10.03;;;14.10;99.90;;;;;;5067050;28;20385;-82
2022/05/04 01:45:00;;;;;;;11.00;9.90;;;14.10;99.90;;;;;;5045061;28;20465;-82
2022/05/04 01:47:49;;;;;;;13.30;10.53;;;14.10;99.90;;;;;;5045654;28;20394;-82
2022/05/04 01:50:33;;;;;;;11.80;10.67;;;14.10;99.90;;;;;;5045638;28;20490;-82
2022/05/04 01:53:18;;;;;;;11.10;10.00;;;14.00;99.90;;;;;;5046300;28;20406;-82
2022/05/04 01:56:07;;;;;;;12.33;10.73;;;13.90;99.90;;;;;;5032026;28;20500;-82
2022/05/04 01:58:51;;;;;;;10.63;9.73;;;13.90;99.90;;;;;;5045475;28;20399;-82
2022/05/04 02:01:38;;;;;;;14.97;12.70;;;13.90;99.90;;;;;;5046123;28;20395;-82
2022/05/04 02:04:22;;;;;;;13.27;10.10;;;13.90;99.90;;;;;;5046105;28;20450;-81
2022/05/04 02:07:09;;;;;;;13.50;12.10;;;13.90;99.90;;;;;;5034519;28;20394;-82
2022/05/04 02:09:54;;;;;;;14.93;11.90;;;13.90;99.90;;;;;;5051612;28;20402;-80
2022/05/04 02:12:39;;;;;;;14.97;13.37;;;13.80;99.90;;;;;;5052867;28;20398;-81
2022/05/04 02:15:24;;;;;;;12.50;11.30;;;13.80;99.90;;;;;;5053409;28;20495;-81
2022/05/04 02:18:08;;;;;;;15.23;11.30;;;13.80;99.90;;;;;;5067289;28;20398;-82
2022/05/04 02:20:53;;;;;;;17.43;10.57;;;13.80;99.90;;;;;;5071556;28;20386;-82
2022/05/04 02:23:39;;;;;;;12.97;11.53;;;13.80;99.90;;;;;;5043749;28;20481;-82
2022/05/04 02:26:25;;;;;;;12.00;10.80;;;13.80;99.90;;;;;;5072698;28;20409;-81
2022/05/04 02:29:10;;;;;;;11.27;10.17;;;13.80;99.90;;;;;;5067431;28;20389;-81
2022/05/04 02:31:58;;;;;;;12.67;11.47;;;13.80;99.90;;;;;;5052636;28;20385;-81
2022/05/04 02:37:55;;;;;;;11.03;10.03;;;13.70;99.90;;;;;;5055355;28;20734;-81
2022/05/04 02:40:40;;;;;;;13.30;12.10;;;13.60;99.90;;;;;;5067664;28;20385;-81
2022/05/04 02:43:26;;;;;;;13.47;11.00;;;13.60;99.90;;;;;;5067887;28;20785;-80
2022/05/04 02:46:13;;;;;;;12.83;11.50;;;13.60;99.90;;;;;;5067154;28;20406;-81
2022/05/04 02:48:57;;;;;;;14.13;11.40;;;13.70;99.90;;;;;;5026031;28;20764;-80
2022/05/04 02:51:42;;;;;;;11.30;10.23;;;13.60;99.90;;;;;;5026136;28;20436;-81
2022/05/04 02:54:26;;;;;;;13.23;11.83;;;13.60;99.90;;;;;;5027023;28;20442;-81
2022/05/04 02:57:11;;;;;;;12.87;11.57;;;13.60;99.90;;;;;;5027835;28;20387;-78
2022/05/04 02:59:55;;;;;;;15.27;11.00;;;13.60;99.90;;;;;;5033754;28;20384;-78
2022/05/04 03:02:40;;;;;;;12.63;11.23;;;13.60;99.90;;;;;;5033327;28;20447;-78
2022/05/04 03:05:25;;;;;;;11.60;10.47;;;13.50;99.90;;;;;;5032827;28;20454;-78
2022/05/04 03:08:10;;;;;;;14.27;12.77;;;13.50;99.90;;;;;;4992358;28;20486;-81
2022/05/04 03:13:59;;;;;;;11.27;10.20;;;13.50;99.90;;;;;;5025034;28;20416;-81
2022/05/04 03:16:45;;;;;;;13.30;11.90;;;13.40;99.90;;;;;;5011424;28;20392;-82
2022/05/04 03:19:30;;;;;;;12.63;11.30;;;13.40;99.90;;;;;;5043470;28;20562;-82
2022/05/04 03:22:15;;;;;;;12.80;11.70;;;13.40;99.90;;;;;;5052487;28;20386;-82
2022/05/04 03:25:05;;;;;;;15.13;11.70;;;13.30;99.90;;;;;;5066553;28;20797;-82
2022/05/04 03:27:50;;;;;;;11.87;10.73;;;13.40;99.90;;;;;;5050988;28;20433;-82
2022/05/04 03:30:34;;;;;;;14.13;10.67;;;13.50;99.90;;;;;;5066497;28;20394;-83
2022/05/04 03:33:19;;;;;;;22.90;12.40;;;13.50;99.90;;;;;;5066888;28;20381;-80
2022/05/04 03:36:05;;;;;;;17.60;12.80;;;13.50;99.90;;;;;;5067484;28;20497;-82
2022/05/04 03:38:49;;;;;;;12.03;10.50;;;13.50;99.90;;;;;;5067649;28;20433;-81
2022/05/04 03:41:35;;;;;;;16.10;12.07;;;13.40;99.90;;;;;;5052682;28;20421;-81
2022/05/04 03:44:20;;;;;;;13.40;12.00;;;13.30;99.90;;;;;;5068391;28;20463;-81
2022/05/04 03:47:06;;;;;;;11.80;10.10;;;13.30;99.90;;;;;;5065464;28;20445;-82
2022/05/04 03:49:51;;;;;;;13.70;12.30;;;13.40;99.90;;;;;;5063207;28;20462;-79
2022/05/04 03:52:36;;;;;;;16.47;11.70;;;13.40;99.90;;;;;;5072829;28;20394;-80
2022/05/04 03:55:20;;;;;;;12.47;11.07;;;13.40;99.90;;;;;;5072839;28;20459;-78
2022/05/04 03:58:06;;;;;;;16.77;11.37;;;13.30;99.90;;;;;;5061189;28;20374;-81
2022/05/04 04:00:51;;;;;;;12.73;11.33;;;13.30;99.90;;;;;;5074616;28;20486;-78
2022/05/04 04:03:36;;;;;;;16.50;11.23;;;13.20;99.90;;;;;;5059318;28;20406;-77
2022/05/04 04:06:21;;;;;;;19.70;12.30;;;13.10;99.90;;;;;;5072871;28;20578;-77
2022/05/04 04:09:06;;;;;;;15.40;11.97;;;13.10;99.90;;;;;;5073158;28;20405;-78
2022/05/04 04:11:50;;;;;;;12.07;10.87;;;13.20;99.90;;;;;;5071609;28;20393;-78
2022/05/04 04:14:35;;;;;;;12.77;11.37;;;13.20;99.90;;;;;;5055326;28;20993;-79
2022/05/04 04:17:20;;;;;;;17.27;13.50;;;13.20;99.90;;;;;;5057337;28;20414;-78
2022/05/04 04:23:06;;;;;;;22.77;11.03;;;13.20;99.90;;;;;;5023403;28;20416;-82
2022/05/04 04:25:51;;;;;;;14.13;12.60;;;13.30;99.90;;;;;;5045955;28;20437;-82
2022/05/04 04:28:38;;;;;;;15.00;12.13;;;13.30;99.90;;;;;;5036267;28;20431;-81
2022/05/04 04:31:23;;;;;;;14.00;11.10;;;13.40;99.90;;;;;;5027459;28;20391;-79
2022/05/04 04:34:08;;;;;;;16.10;12.40;;;13.40;99.90;;;;;;5007181;28;20394;-81
2022/05/04 04:36:52;;;;;;;14.00;11.80;;;13.40;99.90;;;;;;5025230;28;20380;-81
2022/05/04 04:39:37;;;;;;;12.93;11.43;;;13.40;99.90;;;;;;5044542;28;20758;-81
2022/05/04 04:42:21;;;;;;;14.00;10.97;;;13.50;99.90;;;;;;5046215;28;20246;-82
2022/05/04 04:45:06;;;;;;;13.70;11.57;;;13.50;99.90;;;;;;5045605;28;20383;-82
2022/05/04 04:47:51;;;;;;;13.20;11.17;;;13.60;99.90;;;;;;5047336;28;20450;-81
2022/05/04 04:50:36;;;;;;;12.77;10.80;;;13.60;99.90;;;;;;5044743;28;20391;-81
2022/05/04 04:53:21;;;;;;;18.30;10.73;;;13.60;99.90;;;;;;5045310;28;20433;-80
2022/05/04 04:56:06;;;;;;;11.90;10.70;;;13.70;99.90;;;;;;5041768;28;20899;-82
2022/05/04 04:58:51;;;;;;;14.97;11.83;;;13.70;99.90;;;;;;5037803;28;20882;-81
2022/05/04 05:01:37;;;;;;;12.37;11.23;;;13.60;99.90;;;;;;5043596;28;20422;-81
2022/05/04 05:04:22;;;;;;;13.07;11.70;;;13.70;99.90;;;;;;5033444;28;20440;-82
2022/05/04 05:07:07;;;;;;;16.60;12.25;;;13.80;99.90;;;;;;5060145;28;20702;-82
2022/05/04 05:09:51;;;;;;;13.93;11.43;;;13.80;99.90;;;;;;5063237;28;20198;-81
2022/05/04 05:12:36;;;;;;;16.43;11.33;;;13.90;99.90;;;;;;5036360;28;20430;-81
2022/05/04 05:18:19;;;;;;;15.70;10.30;;;14.00;99.90;;;;;;5059053;28;20427;-82
2022/05/04 05:21:04;;;;;;;15.47;10.17;;;14.10;99.90;;;;;;5050111;28;20525;-82
2022/05/04 05:23:49;;;;;;;11.63;10.00;;;14.20;99.90;;;;;;5060998;28;20425;-82
2022/05/04 05:26:33;;;;;;;12.07;9.43;;;14.30;99.90;;;;;;5060496;28;20754;-82
2022/05/04 05:29:18;;;;;;;11.27;8.90;;;14.30;99.90;;;;;;5025941;28;20425;-82
2022/05/04 05:32:03;;;;;;;15.60;10.90;;;14.30;99.90;;;;;;5041424;28;20949;-81
2022/05/04 05:34:47;;;;;;;10.87;9.73;;;14.40;99.90;;;;;;5060530;28;20596;-78
2022/05/04 05:37:32;;;;;;;12.70;10.50;;;14.40;99.90;;;;;;5060352;28;20850;-81
2022/05/04 05:40:16;;;;;;;11.50;10.13;;;14.40;99.90;;;;;;5057778;28;20429;-81
2022/05/04 05:43:01;;;;;;;11.70;9.10;;;14.50;99.90;;;;;;5057765;28;20413;-82
2022/05/04 05:45:45;;;;;;;11.63;10.43;;;14.50;99.90;;;;;;5027444;28;20471;-81
2022/05/04 05:48:30;;;;;;;13.73;10.47;;;14.60;99.90;;;;;;5050898;28;20445;-80
2022/05/04 05:51:15;;;;;;;12.97;10.73;;;14.70;99.90;;;;;;5040573;28;20452;-82
2022/05/04 05:53:59;;;;;;;12.73;9.53;;;14.60;99.90;;;;;;5060856;28;20433;-81
2022/05/04 05:56:44;;;;;;;22.70;9.70;;;14.70;99.90;;;;;;5047657;28;20456;-84
2022/05/04 05:59:28;;;;;;;17.70;10.60;;;14.80;99.90;;;;;;5040994;28;20433;-83
2022/05/04 06:02:13;;;;;;;16.40;10.63;;;14.80;99.90;;;;;;5050381;28;20568;-84
2022/05/04 06:04:57;;;;;;;17.13;10.27;;;14.90;99.90;;;;;;5046659;28;20592;-83
2022/05/04 06:07:42;;;;;;;11.47;10.00;;;14.90;99.90;;;;;;5043157;28;20529;-83
2022/05/04 06:10:26;;;;;;;16.57;10.73;;;15.00;99.90;;;;;;5041864;28;20491;-82
2022/05/04 06:13:13;;;;;;;13.53;12.23;;;15.10;99.90;;;;;;5049531;28;20451;-85
2022/05/04 06:15:57;;;;;;;11.87;10.63;;;15.10;99.90;;;;;;5058736;28;20521;-83
2022/05/04 06:18:42;;;;;;;16.20;11.47;;;15.10;99.90;;;;;;5041745;28;20436;-84
2022/05/04 06:21:26;;;;;;;13.40;11.27;;;15.00;99.90;;;;;;5053873;28;20413;-81
2022/05/04 06:24:15;;;;;;;16.10;11.40;;;14.90;99.90;;;;;;5060893;28;20425;-83
2022/05/04 06:27:00;;;;;;;13.10;11.20;;;15.00;99.90;;;;;;5051344;28;20417;-83
2022/05/04 06:35:42;;;;;;;15.77;13.27;;;15.50;99.90;;;;;;5069479;28;20996;-82
2022/05/04 06:38:27;;;;;;;12.93;11.33;;;15.50;99.90;;;;;;5039767;28;20471;-83
2022/05/04 06:41:12;;;;;;;16.10;11.40;;;15.50;99.90;;;;;;5053176;28;20499;-83
2022/05/04 06:43:56;;;;;;;11.23;10.10;;;15.20;99.90;;;;;;5032954;28;20468;-84
2022/05/04 06:46:42;;;;;;;11.60;10.40;;;15.10;99.90;;;;;;5053847;28;20425;-83
2022/05/04 06:49:26;;;;;;;14.03;12.53;;;15.30;99.90;;;;;;5035784;28;20527;-80
2022/05/04 06:52:11;;;;;;;14.63;11.97;;;15.40;99.90;;;;;;5025334;28;20954;-83
2022/05/04 06:54:55;;;;;;;12.80;10.97;;;15.50;99.90;;;;;;5029032;28;20983;-83
2022/05/04 06:57:40;;;;;;;14.83;11.07;;;15.40;99.90;;;;;;5045746;28;20814;-83
2022/05/04 07:00:25;;;;;;;16.10;12.27;;;15.10;99.90;;;;;;5037452;28;20445;-82
2022/05/04 07:03:09;;;;;;;10.40;9.40;;;15.10;99.90;;;;;;5052445;28;20422;-82
2022/05/04 07:05:54;;;;;;;13.30;10.37;;;15.10;99.90;;;;;;5046888;28;20557;-82
2022/05/04 07:08:39;;;;;;;12.03;10.77;;;15.10;99.90;;;;;;5051560;28;20494;-80
2022/05/04 07:11:23;;;;;;;10.73;9.60;;;15.30;99.90;;;;;;5055551;28;20437;-83
2022/05/04 07:14:08;;;;;;;13.87;10.70;;;15.20;99.90;;;;;;5036325;28;20451;-83
2022/05/04 07:16:53;;;;;;;14.17;10.20;;;15.40;99.90;;;;;;5041212;28;20490;-81
2022/05/04 07:19:37;;;;;;;12.20;10.50;;;15.70;99.90;;;;;;5055284;28;20429;-82
2022/05/04 07:22:23;;;;;;;11.23;10.00;;;15.50;99.90;;;;;;5055749;28;20429;-84
2022/05/04 07:25:08;;;;;;;16.23;11.20;;;15.60;99.90;;;;;;5055693;28;20430;-82
2022/05/04 07:27:52;;;;;;;11.30;9.27;;;15.70;99.90;;;;;;5050514;28;20438;-82
2022/05/04 07:30:37;;;;;;;10.90;9.90;;;15.80;99.90;;;;;;5060515;28;20477;-82
2022/05/04 07:33:22;;;;;;;8.60;7.77;;;16.00;99.90;;;;;;5056497;28;20514;-82
2022/05/04 07:36:06;;;;;;;10.20;9.17;;;16.00;99.90;;;;;;5059109;28;20449;-83
2022/05/04 07:38:51;;;;;;;10.13;9.17;;;16.00;99.90;;;;;;5061934;28;20428;-82
2022/05/04 07:44:35;;;;;;;11.80;9.57;;;16.10;99.90;;;;;;5045832;28;20545;-81
2022/05/04 07:47:20;;;;;;;9.90;8.80;;;16.30;99.90;;;;;;5049660;28;20533;-79
2022/05/04 07:50:08;;;;;;;9.03;8.13;;;16.50;99.90;;;;;;5045483;28;20437;-80
2022/05/04 07:52:53;;;;;;;8.93;8.03;;;16.50;99.90;;;;;;5046989;28;21080;-80
2022/05/04 07:55:37;;;;;;;9.80;8.50;;;16.30;99.90;;;;;;5045987;28;20468;-82
2022/05/04 07:58:24;;;;;;;9.77;8.77;;;16.40;99.90;;;;;;5048466;28;20450;-83
2022/05/04 08:04:21;;;;;;;9.23;8.33;;;16.70;99.90;;;;;;5065433;28;20419;-84
2022/05/04 08:07:06;;;;;;;11.03;9.63;;;16.70;99.90;;;;;;5063417;28;20495;-78
2022/05/04 08:09:57;;;;;;;10.03;8.93;;;16.70;99.90;;;;;;5039284;28;20787;-81
2022/05/04 08:12:42;;;;;;;9.63;8.73;;;16.80;99.90;;;;;;5042361;28;20452;-80
2022/05/04 08:15:30;;;;;;;9.17;8.00;;;16.70;99.90;;;;;;5040515;28;20473;-80
2022/05/04 08:18:16;;;;;;;7.23;6.63;;;16.80;99.90;;;;;;5042619;28;20966;-80
2022/05/04 08:21:02;;;;;;;9.37;8.47;;;16.90;99.90;;;;;;5030069;28;20452;-79
2022/05/04 08:23:46;;;;;;;9.97;9.07;;;16.90;99.90;;;;;;5045185;28;20477;-81
2022/05/04 08:26:31;;;;;;;10.80;8.87;;;16.90;99.90;;;;;;5052581;28;20813;-81
2022/05/04 08:29:16;;;;;;;8.70;7.80;;;17.00;99.90;;;;;;5050788;28;20455;-81
2022/05/04 08:32:01;;;;;;;10.50;8.30;;;16.90;99.90;;;;;;5038431;28;20437;-81
2022/05/04 08:34:46;;;;;;;10.00;7.10;;;16.80;99.90;;;;;;5036373;28;20906;-79
2022/05/04 08:37:31;;;;;;;8.17;7.47;;;17.00;99.90;;;;;;5043087;28;20421;-82
2022/05/04 08:40:16;;;;;;;8.97;8.17;;;16.90;99.90;;;;;;5049759;28;20472;-81
2022/05/04 08:43:07;;;;;;;12.30;8.83;;;16.90;99.90;;;;;;5049109;28;20496;-82
2022/05/04 08:45:53;;;;;;;10.37;8.43;;;17.10;99.90;;;;;;5036814;28;20439;-82
2022/05/04 08:48:39;;;;;;;10.67;7.63;;;17.40;99.90;;;;;;5037700;28;20497;-83
2022/05/04 08:51:24;;;;;;;8.90;8.10;;;17.50;99.90;;;;;;5040830;28;20441;-83
2022/05/04 08:54:09;;;;;;;10.10;7.37;;;17.20;99.90;;;;;;5033752;28;20434;-83
2022/05/04 08:56:54;;;;;;;8.10;7.30;;;17.50;99.90;;;;;;5051550;28;20568;-81
2022/05/04 08:59:41;;;;;;;9.63;8.00;;;17.70;99.90;;;;;;5039970;28;20453;-80
2022/05/04 09:02:26;;;;;;;12.80;10.23;;;17.80;99.90;;;;;;5039687;28;20445;-83
2022/05/04 09:05:19;;;;;;;10.40;9.30;;;17.80;99.90;;;;;;5051824;28;20476;-80
2022/05/04 09:08:04;;;;;;;8.40;7.50;;;17.90;99.90;;;;;;5045939;28;20457;-80
2022/05/04 09:10:48;;;;;;;8.43;7.50;;;17.80;99.90;;;;;;5027470;28;20564;-83
2022/05/04 09:13:46;;;;;;;7.70;7.10;;;17.80;99.90;;;;;;5050876;28;20424;-79
2022/05/04 09:16:32;;;;;;;10.17;7.70;;;18.00;99.90;;;;;;5042691;28;20452;-80
2022/05/04 09:19:19;;;;;;;9.50;8.30;;;17.90;99.90;;;;;;5018308;28;20894;-79
2022/05/04 09:22:16;;;;;;;9.20;8.40;;;18.30;99.90;;;;;;5043509;28;20460;-80
2022/05/04 09:25:01;;;;;;;8.70;7.80;;;18.40;99.90;;;;;;5038783;28;20484;-81
2022/05/04 09:27:47;;;;;;;16.03;8.03;;;18.80;99.90;;;;;;5061509;28;20429;-81
2022/05/04 09:30:31;;;;;;;9.70;7.97;;;18.80;99.90;;;;;;5056883;28;20582;-80
2022/05/04 09:33:19;;;;;;;9.50;8.53;;;18.50;99.90;;;;;;5033388;28;20433;-78
2022/05/04 09:36:04;;;;;;;8.87;7.97;;;18.50;99.90;;;;;;5039875;28;20461;-81
2022/05/04 09:45:14;;;;;;;7.43;6.73;;;19.10;99.90;;;;;;5002798;28;20486;-80
2022/05/04 09:47:59;;;;;;;7.17;6.53;;;19.10;99.90;;;;;;5011790;28;20934;-81
2022/05/04 09:50:45;;;;;;;8.03;5.97;;;19.10;99.90;;;;;;5001709;28;21079;-81
2022/05/04 09:53:30;;;;;;;9.00;6.70;;;19.40;99.90;;;;;;4967511;28;20498;-80
2022/05/04 09:56:15;;;;;;;9.25;6.40;;;19.60;99.90;;;;;;4995472;28;20529;-81
2022/05/04 09:59:00;;;;;;;8.43;7.67;;;19.10;99.90;;;;;;4995145;28;20228;-81
2022/05/04 10:01:45;;;;;;;8.60;7.13;;;19.60;99.90;;;;;;4995680;28;20590;-81
2022/05/04 10:04:33;;;;;;;7.80;6.33;;;19.70;99.90;;;;;;5023892;28;20973;-82
2022/05/04 10:07:19;;;;;;;8.27;7.07;;;20.00;99.90;;;;;;5005863;28;20444;-82
2022/05/04 10:10:06;;;;;;;17.33;7.00;;;20.60;99.90;;;;;;5050412;28;20794;-82
2022/05/04 10:12:51;;;;;;;6.93;6.33;;;20.00;99.90;;;;;;5030101;28;20937;-83
2022/05/04 10:15:38;;;;;;;7.97;6.90;;;20.00;99.90;;;;;;5027694;28;20481;-81
2022/05/04 10:18:28;;;;;;;12.30;7.50;;;20.50;99.90;;;;;;5028126;28;20966;-81
2022/05/04 10:21:15;;;;;;;7.67;7.07;;;20.60;99.90;;;;;;5045920;28;20458;-80
2022/05/04 10:24:03;;;;;;;9.37;8.23;;;20.60;99.90;;;;;;5017067;28;20594;-79
2022/05/04 10:26:48;;;;;;;10.03;8.40;;;20.60;99.90;;;;;;5001571;28;20511;-83
2022/05/04 10:32:46;;;;;;;7.43;6.83;;;21.10;99.90;;;;;;5006848;28;20440;-81
2022/05/04 10:35:51;;;;;;;8.23;6.37;;;20.70;99.90;;;;;;5007290;28;20485;-80
2022/05/04 10:38:35;;;;;;;8.07;7.40;;;21.00;99.90;;;;;;5023562;28;20448;-83
2022/05/04 10:41:37;;;;;;;6.07;5.60;;;20.80;99.90;;;;;;5031254;28;20403;-82
2022/05/04 10:44:55;;;;;;;7.90;6.67;;;21.00;99.90;;;;;;5003239;28;20439;-81
2022/05/04 10:47:44;;;;;;;6.40;5.90;;;21.40;99.90;;;;;;5008671;28;20486;-82
2022/05/04 10:50:50;;;;;;;7.13;6.53;;;21.70;99.90;;;;;;5004986;28;20791;-80
2022/05/04 10:53:38;;;;;;;7.53;6.63;;;21.70;99.90;;;;;;4994495;28;20443;-80
2022/05/04 10:56:25;;;;;;;6.97;6.47;;;22.40;99.90;;;;;;5030529;28;20568;-82
2022/05/04 10:59:11;;;;;;;6.20;5.60;;;21.50;99.90;;;;;;5032483;28;20472;-82
2022/05/04 11:02:04;;;;;;;8.30;6.33;;;21.80;99.90;;;;;;5017094;28;21001;-84
2022/05/04 11:04:58;;;;;;;6.40;5.90;;;21.80;99.90;;;;;;5004323;28;20470;-84
2022/05/04 11:07:46;;;;;;;6.10;5.60;;;22.20;99.90;;;;;;4965680;28;20488;-82
2022/05/04 11:10:31;;;;;;;7.20;6.60;;;23.00;99.90;;;;;;4997197;28;20443;-82
2022/05/04 11:13:16;;;;;;;7.17;6.27;;;23.30;99.90;;;;;;4994112;28;20435;-83
2022/05/04 11:16:01;;;;;;;7.50;6.00;;;22.80;99.90;;;;;;4992473;28;20496;-83
2022/05/04 11:18:45;;;;;;;6.30;5.80;;;22.00;99.90;;;;;;4975859;28;21048;-82
2022/05/04 11:21:31;;;;;;;6.77;5.97;;;22.90;99.90;;;;;;4995985;28;20467;-84
2022/05/04 11:24:16;;;;;;;11.20;6.10;;;22.00;99.90;;;;;;4978637;28;20426;-83
2022/05/04 11:27:01;;;;;;;6.43;5.83;;;23.10;99.90;;;;;;4983830;28;20506;-83
2022/05/04 11:29:46;;;;;;;6.43;5.73;;;23.40;99.90;;;;;;5000465;28;20468;-81
2022/05/04 11:32:39;;;;;;;6.70;6.20;;;24.60;98.60;;;;;;4983933;28;20484;-83
2022/05/04 11:35:25;;;;;;;6.70;6.20;;;23.30;97.70;;;;;;4990255;28;21605;-83
2022/05/04 11:38:21;;;;;;;6.73;6.13;;;22.70;99.90;;;;;;5015322;28;20437;-83
2022/05/04 11:41:08;;;;;;;5.80;5.40;;;22.90;99.20;;;;;;5060812;28;20484;-82
2022/05/04 11:43:54;;;;;;;8.30;6.47;;;24.10;99.90;;;;;;5057427;28;20455;-84
2022/05/04 11:46:41;;;;;;;7.23;6.57;;;24.00;95.70;;;;;;5056480;28;20424;-84
2022/05/04 11:49:28;;;;;;;8.03;7.43;;;24.50;97.60;;;;;;5025188;28;20452;-83
2022/05/04 11:52:14;;;;;;;6.80;6.30;;;24.90;95.90;;;;;;5042377;28;20444;-84
2022/05/04 11:55:02;;;;;;;6.63;6.10;;;23.90;97.00;;;;;;5012250;28;21192;-83
2022/05/04 11:57:48;;;;;;;7.40;6.70;;;23.10;98.90;;;;;;4996456;28;20423;-83
2022/05/04 12:00:33;;;;;;;6.60;6.10;;;23.90;96.60;;;;;;4995129;28;20431;-82
2022/05/04 12:03:18;;;;;;;6.37;5.83;;;24.20;95.50;;;;;;5011426;28;20431;-83
2022/05/04 12:06:04;;;;;;;7.20;6.30;;;24.40;96.80;;;;;;5008932;28;20553;-83
2022/05/04 12:08:49;;;;;;;6.23;5.80;;;24.80;96.80;;;;;;5013410;28;20539;-84
2022/05/04 12:11:34;;;;;;;9.13;7.40;;;24.90;94.30;;;;;;5010667;28;20484;-82
2022/05/04 12:14:19;;;;;;;6.97;6.30;;;25.60;93.80;;;;;;5006228;28;20478;-83
2022/05/04 12:17:05;;;;;;;5.60;5.20;;;25.10;92.80;;;;;;4992186;28;20543;-83
2022/05/04 12:19:49;;;;;;;8.60;7.10;;;24.70;93.00;;;;;;4970288;28;20452;-80
2022/05/04 12:22:35;;;;;;;6.23;5.73;;;24.90;93.20;;;;;;5004333;28;20451;-85
2022/05/04 12:25:21;;;;;;;5.10;4.80;;;22.70;94.70;;;;;;5013472;28;20440;-82
2022/05/04 12:28:07;;;;;;;9.60;6.20;;;21.80;96.90;;;;;;5042307;28;20437;-84
2022/05/04 12:33:48;;;;;;;6.10;5.60;;;21.40;99.70;;;;;;5056447;28;20441;-84
2022/05/04 12:36:34;;;;;;;6.23;5.47;;;21.30;99.90;;;;;;5054116;28;20484;-83
2022/05/04 12:39:22;;;;;;;5.83;4.50;;;21.20;99.90;;;;;;5042618;28;20449;-83
2022/05/04 12:42:07;;;;;;;5.03;4.63;;;21.10;99.90;;;;;;5056861;28;20440;-83
2022/05/04 12:44:53;;;;;;;5.13;4.63;;;21.10;99.80;;;;;;5041369;28;20494;-84
2022/05/04 12:47:38;;;;;;;5.23;4.83;;;20.70;99.90;;;;;;5047940;28;20492;-84
2022/05/04 12:50:29;;;;;;;4.80;4.40;;;20.70;98.50;;;;;;5063511;28;20992;-83
2022/05/04 12:53:16;;;;;;;7.40;4.83;;;20.50;94.60;;;;;;5048184;28;20478;-82
2022/05/04 12:59:01;;;;;;;4.77;4.30;;;20.30;93.80;;;;;;5047106;28;20413;-83
2022/05/04 13:01:46;;;;;;;6.37;4.67;;;20.20;95.00;;;;;;5049922;28;20421;-84
2022/05/04 13:04:30;;;;;;;4.60;4.20;;;19.80;97.10;;;;;;5008321;28;20475;-83
2022/05/04 13:07:15;;;;;;;6.27;4.40;;;19.50;98.20;;;;;;5005324;28;20427;-84
2022/05/04 13:09:59;;;;;;;5.00;4.30;;;18.90;99.60;;;;;;5007915;28;20476;-84
2022/05/04 13:12:44;;;;;;;7.10;4.33;;;18.40;99.90;;;;;;5028518;28;20467;-85
2022/05/04 13:15:28;;;;;;;6.80;4.80;;;17.80;99.90;;;;;;5031762;28;20522;-84
2022/05/04 13:18:15;;;;;;;6.00;5.40;;;17.30;99.90;;;;;;5031879;28;20480;-83
2022/05/04 13:21:21;;;;;;;7.70;5.70;;;16.60;99.90;;;;;;4957017;29;20423;-83
2022/05/04 13:24:06;;;;;;;8.40;6.97;;;16.10;99.90;;;;;;4955530;29;20442;-82
2022/05/04 13:26:51;;;;;;;8.53;5.87;;;16.00;99.90;;;;;;4949986;28;20430;-83
2022/05/04 13:29:35;;;;;;;10.07;6.67;;;15.50;99.90;;;;;;4957557;29;20570;-83
2022/05/04 13:32:20;;;;;;;7.23;6.10;;;15.30;99.90;;;;;;4955250;28;20813;-82
2022/05/04 13:35:05;;;;;;;9.77;8.17;;;14.50;99.90;;;;;;4969837;28;20462;-84
2022/05/04 13:37:49;;;;;;;10.60;8.40;;;14.60;99.90;;;;;;4928641;29;20436;-82
2022/05/04 13:40:34;;;;;;;9.53;8.43;;;14.60;99.90;;;;;;4936499;29;20435;-84
2022/05/04 13:43:19;;;;;;;14.17;7.33;;;14.20;99.90;;;;;;4926735;29;20427;-83
2022/05/04 13:46:04;;;;;;;13.07;7.67;;;14.00;99.90;;;;;;4935111;29;20446;-84
2022/05/04 13:48:48;;;;;;;8.27;7.20;;;14.20;99.90;;;;;;4927305;29;20478;-83
2022/05/04 13:54:32;;;;;;;10.05;8.20;;;14.30;99.90;;;;;;4937983;29;20456;-84
2022/05/04 13:57:19;;;;;;;11.43;8.37;;;14.40;99.90;;;;;;4913278;29;20223;-82
2022/05/04 14:00:04;;;;;;;13.57;8.20;;;14.70;99.90;;;;;;4927913;28;20444;-83
2022/05/04 14:02:48;;;;;;;12.70;7.57;;;14.60;99.90;;;;;;4920376;29;20463;-84
2022/05/04 14:05:33;;;;;;;11.07;6.67;;;14.50;99.90;;;;;;4944788;29;20490;-83
2022/05/04 14:08:19;;;;;;;8.27;7.23;;;14.60;99.90;;;;;;4943452;28;20432;-83
2022/05/04 14:11:04;;;;;;;10.07;7.43;;;14.50;99.90;;;;;;5013900;28;20484;-83
2022/05/04 14:13:50;;;;;;;9.50;7.67;;;14.30;99.90;;;;;;5040990;28;20446;-82
2022/05/04 14:16:34;;;;;;;8.47;7.60;;;14.50;99.90;;;;;;5048288;28;20493;-83
2022/05/04 14:19:20;;;;;;;7.20;6.60;;;14.70;99.90;;;;;;5038351;28;20431;-84
2022/05/04 14:22:05;;;;;;;9.88;7.68;;;14.30;99.90;;;;;;5045525;28;21016;-84
2022/05/04 14:24:49;;;;;;;6.67;6.07;;;14.20;99.90;;;;;;5047100;28;20254;-84
2022/05/04 14:27:35;;;;;;;9.00;6.50;;;14.00;99.90;;;;;;5013384;28;20443;-84
2022/05/04 14:30:20;;;;;;;7.80;6.80;;;14.20;99.90;;;;;;5048223;28;20450;-84
2022/05/04 14:33:05;;;;;;;12.03;6.20;;;14.30;99.90;;;;;;5037486;28;20419;-85
2022/05/04 14:35:50;;;;;;;7.30;6.43;;;14.40;99.90;;;;;;5040473;28;20977;-83
2022/05/04 14:38:37;;;;;;;6.70;6.10;;;14.40;99.90;;;;;;5057513;28;20430;-83
2022/05/04 14:41:22;;;;;;;9.13;6.80;;;14.60;99.90;;;;;;4988886;28;21138;-82
2022/05/04 14:44:09;;;;;;;7.43;6.03;;;14.50;99.90;;;;;;5019523;28;20442;-85
2022/05/04 14:46:53;;;;;;;5.93;5.43;;;14.80;99.90;;;;;;5041234;28;20425;-84
2022/05/04 14:49:38;;;;;;;6.43;5.47;;;15.10;99.90;;;;;;5045791;28;20463;-84
2022/05/04 14:52:23;;;;;;;8.37;7.30;;;15.00;99.90;;;;;;5017873;28;20479;-84
2022/05/04 14:55:08;;;;;;;4.93;4.50;;;15.20;99.90;;;;;;5033494;28;20486;-83